Time;durP1;ratioP1;P1;durP2;ratioP2;P2;SDS_P1;SDS_P2;PMS_P1;PMS_P2;Temp;Humidity;BMP_temperature;BMP_pressure;BME280_temperature;BME280_humidity;BME280_pressure;Samples;Min_cycle;Max_cycle;Signal;HPM_P1;HPM_P2
2023/07/30 00:01:55;;;;;;;3.40;3.10;;;;;;;;;;5134477;27;20250;-57
2023/07/30 00:04:22;;;;;;;4.80;3.30;;;;;;;;;;5134009;27;20258;-57
2023/07/30 00:06:48;;;;;;;4.40;3.00;;;;;;;;;;5134066;27;20588;-57
2023/07/30 00:09:14;;;;;;;3.20;2.57;;;;;;;;;;5134154;27;20274;-57
2023/07/30 00:11:41;;;;;;;3.53;3.20;;;;;;;;;;5134113;27;20185;-57
2023/07/30 00:14:07;;;;;;;2.47;2.27;;;;;;;;;;5132131;27;20672;-57
2023/07/30 00:16:33;;;;;;;2.80;2.57;;;;;;;;;;5133841;27;20268;-57
2023/07/30 00:18:59;;;;;;;3.67;3.33;;;;;;;;;;5134374;27;20195;-57
2023/07/30 00:21:25;;;;;;;3.53;2.83;;;;;;;;;;5134096;27;20677;-57
2023/07/30 00:23:51;;;;;;;3.83;3.47;;;;;;;;;;5133997;27;20197;-56
2023/07/30 00:26:17;;;;;;;3.40;3.10;;;;;;;;;;5133978;27;20728;-55
2023/07/30 00:28:44;;;;;;;3.90;3.60;;;;;;;;;;5134053;27;20221;-55
2023/07/30 00:31:10;;;;;;;4.57;3.80;;;;;;;;;;5134210;27;20201;-55
2023/07/30 00:33:36;;;;;;;8.20;7.50;;;;;;;;;;5133684;27;20235;-55
2023/07/30 00:36:02;;;;;;;4.47;3.70;;;;;;;;;;5134101;27;20246;-56
2023/07/30 00:38:28;;;;;;;4.90;3.90;;;;;;;;;;5133867;27;20221;-56
2023/07/30 00:40:55;;;;;;;3.77;3.47;;;;;;;;;;5134042;27;20197;-55
2023/07/30 00:43:21;;;;;;;3.77;3.47;;;;;;;;;;5133704;27;20203;-55
2023/07/30 00:45:49;;;;;;;6.97;6.37;;;;;;;;;;5133806;27;20221;-56
2023/07/30 00:48:16;;;;;;;4.70;4.20;;;;;;;;;;5133635;27;20313;-56
2023/07/30 00:50:42;;;;;;;4.63;3.80;;;;;;;;;;5133265;27;20197;-55
2023/07/30 00:53:09;;;;;;;4.30;4.00;;;;;;;;;;5133599;27;20204;-56
2023/07/30 00:55:35;;;;;;;4.07;3.67;;;;;;;;;;5133585;27;20268;-56
2023/07/30 00:58:02;;;;;;;4.63;3.70;;;;;;;;;;5133542;27;20292;-55
2023/07/30 01:00:29;;;;;;;5.10;3.83;;;;;;;;;;5133394;27;20193;-56
2023/07/30 01:02:56;;;;;;;4.17;3.77;;;;;;;;;;5133660;27;20194;-55
2023/07/30 01:05:22;;;;;;;4.60;3.57;;;;;;;;;;5133283;27;20244;-55
2023/07/30 01:07:51;;;;;;;4.53;3.27;;;;;;;;;;5133401;27;20252;-55
2023/07/30 01:10:18;;;;;;;5.00;3.57;;;;;;;;;;5133269;27;20297;-56
2023/07/30 01:12:44;;;;;;;6.30;3.77;;;;;;;;;;5133328;27;20255;-55
2023/07/30 01:15:10;;;;;;;3.87;3.20;;;;;;;;;;5133252;27;20658;-55
2023/07/30 01:17:36;;;;;;;3.70;3.23;;;;;;;;;;5133153;27;20209;-55
2023/07/30 01:20:05;;;;;;;4.17;3.20;;;;;;;;;;5131727;27;20191;-55
2023/07/30 01:22:33;;;;;;;3.97;3.60;;;;;;;;;;5133359;27;20213;-55
2023/07/30 01:24:59;;;;;;;6.03;3.10;;;;;;;;;;5133061;27;20245;-56
2023/07/30 01:27:26;;;;;;;4.07;3.30;;;;;;;;;;5130021;27;20278;-55
2023/07/30 01:29:54;;;;;;;4.93;3.73;;;;;;;;;;5133449;27;20199;-54
2023/07/30 01:32:23;;;;;;;3.63;3.30;;;;;;;;;;5133474;27;20213;-54
2023/07/30 01:34:50;;;;;;;4.10;3.47;;;;;;;;;;5133534;27;20792;-54
2023/07/30 01:37:17;;;;;;;3.40;2.90;;;;;;;;;;5133446;27;20313;-54
2023/07/30 01:39:45;;;;;;;4.90;3.40;;;;;;;;;;5133615;27;20198;-55
2023/07/30 01:42:12;;;;;;;3.40;3.10;;;;;;;;;;5133687;27;20229;-55
2023/07/30 01:44:38;;;;;;;4.03;3.30;;;;;;;;;;5132757;27;20647;-54
2023/07/30 01:47:04;;;;;;;3.87;3.57;;;;;;;;;;5132907;27;20225;-55
2023/07/30 01:49:30;;;;;;;8.77;3.63;;;;;;;;;;5132605;27;20272;-55
2023/07/30 01:51:56;;;;;;;3.87;3.47;;;;;;;;;;5132975;27;20210;-55
2023/07/30 01:54:22;;;;;;;4.80;3.87;;;;;;;;;;5132820;27;20198;-55
2023/07/30 01:56:49;;;;;;;6.03;4.10;;;;;;;;;;5132917;27;20674;-55
2023/07/30 01:59:15;;;;;;;3.80;3.40;;;;;;;;;;5132621;27;20186;-55
2023/07/30 02:01:41;;;;;;;4.97;3.73;;;;;;;;;;5131912;27;20240;-55
2023/07/30 02:04:07;;;;;;;3.90;3.53;;;;;;;;;;5132710;27;20244;-55
2023/07/30 02:06:33;;;;;;;3.80;3.33;;;;;;;;;;5132662;27;20194;-55
2023/07/30 02:08:59;;;;;;;6.27;3.87;;;;;;;;;;5132708;27;20221;-55
2023/07/30 02:11:25;;;;;;;4.33;3.93;;;;;;;;;;5132578;27;20258;-55
2023/07/30 02:13:53;;;;;;;4.90;3.87;;;;;;;;;;5132464;27;20202;-55
2023/07/30 02:16:19;;;;;;;7.87;4.30;;;;;;;;;;5132605;27;20282;-55
2023/07/30 02:18:45;;;;;;;4.90;3.30;;;;;;;;;;5132815;27;20304;-55
2023/07/30 02:21:11;;;;;;;7.87;3.70;;;;;;;;;;5133037;27;20198;-55
2023/07/30 02:23:37;;;;;;;5.17;3.93;;;;;;;;;;5132753;27;20216;-55
2023/07/30 02:26:03;;;;;;;9.70;4.33;;;;;;;;;;5132776;27;20304;-55
2023/07/30 02:28:29;;;;;;;5.97;4.13;;;;;;;;;;5132541;27;20279;-55
2023/07/30 02:30:56;;;;;;;4.57;4.03;;;;;;;;;;5132917;27;20288;-55
2023/07/30 02:33:22;;;;;;;4.30;3.90;;;;;;;;;;5132539;27;20304;-55
2023/07/30 02:35:48;;;;;;;4.00;3.70;;;;;;;;;;5132733;27;20201;-55
2023/07/30 02:38:14;;;;;;;6.33;3.50;;;;;;;;;;5132705;27;20211;-55
2023/07/30 02:40:40;;;;;;;3.30;3.00;;;;;;;;;;5132663;27;20210;-55
2023/07/30 02:43:06;;;;;;;4.07;3.57;;;;;;;;;;5132674;27;20246;-55
2023/07/30 02:45:32;;;;;;;7.10;3.90;;;;;;;;;;5132438;27;20190;-55
2023/07/30 02:48:00;;;;;;;3.87;3.30;;;;;;;;;;5132503;27;20247;-55
2023/07/30 02:50:26;;;;;;;4.93;3.43;;;;;;;;;;5132631;27;20293;-55
2023/07/30 02:52:52;;;;;;;6.03;3.60;;;;;;;;;;5132604;27;20280;-55
2023/07/30 02:55:18;;;;;;;3.87;3.23;;;;;;;;;;5132435;27;20276;-55
2023/07/30 02:57:44;;;;;;;6.93;3.63;;;;;;;;;;5132355;27;20550;-55
2023/07/30 03:00:10;;;;;;;4.90;3.50;;;;;;;;;;5132522;27;20201;-55
2023/07/30 03:02:36;;;;;;;7.50;3.73;;;;;;;;;;5132332;27;20216;-55
2023/07/30 03:05:04;;;;;;;7.17;3.17;;;;;;;;;;5132325;27;20536;-55
2023/07/30 03:07:30;;;;;;;6.20;3.30;;;;;;;;;;5131715;27;20563;-55
2023/07/30 03:09:56;;;;;;;8.57;3.33;;;;;;;;;;5132471;27;20203;-55
2023/07/30 03:12:23;;;;;;;5.77;3.23;;;;;;;;;;5132190;27;20657;-55
2023/07/30 03:14:49;;;;;;;6.73;3.17;;;;;;;;;;5135746;27;20798;-55
2023/07/30 03:17:15;;;;;;;5.33;3.07;;;;;;;;;;5136290;27;20262;-55
2023/07/30 03:19:41;;;;;;;4.87;3.23;;;;;;;;;;5136257;27;20292;-54
2023/07/30 03:22:08;;;;;;;3.83;2.80;;;;;;;;;;5136309;27;20270;-55
2023/07/30 03:24:34;;;;;;;6.23;3.30;;;;;;;;;;5134157;27;20266;-55
2023/07/30 03:27:00;;;;;;;5.07;3.00;;;;;;;;;;5136231;27;20197;-55
2023/07/30 03:29:26;;;;;;;5.17;3.10;;;;;;;;;;5134687;27;20630;-55
2023/07/30 03:31:52;;;;;;;4.37;3.40;;;;;;;;;;5135403;27;20201;-55
2023/07/30 03:34:18;;;;;;;5.80;3.10;;;;;;;;;;5135790;27;20283;-55
2023/07/30 03:36:44;;;;;;;9.30;2.93;;;;;;;;;;5135845;27;20570;-55
2023/07/30 03:39:12;;;;;;;6.93;2.60;;;;;;;;;;5134047;27;20228;-55
2023/07/30 03:41:38;;;;;;;9.57;3.17;;;;;;;;;;5135041;27;20190;-55
2023/07/30 03:44:04;;;;;;;6.23;3.07;;;;;;;;;;5135545;27;20653;-56
2023/07/30 03:46:30;;;;;;;5.93;3.00;;;;;;;;;;5135769;27;20204;-56
2023/07/30 03:48:56;;;;;;;4.57;2.80;;;;;;;;;;5135194;27;20213;-56
2023/07/30 03:51:22;;;;;;;6.33;3.23;;;;;;;;;;5134992;27;20197;-56
2023/07/30 03:53:48;;;;;;;4.33;2.90;;;;;;;;;;5135452;27;20189;-56
2023/07/30 03:56:16;;;;;;;5.50;2.73;;;;;;;;;;5135448;27;20202;-55
2023/07/30 03:58:42;;;;;;;4.07;2.70;;;;;;;;;;5135659;27;20190;-56
2023/07/30 04:01:08;;;;;;;3.33;2.80;;;;;;;;;;5135654;27;20556;-56
2023/07/30 04:03:34;;;;;;;4.67;2.90;;;;;;;;;;5135405;27;20644;-56
2023/07/30 04:06:01;;;;;;;5.47;2.87;;;;;;;;;;5135369;27;20197;-56
2023/07/30 04:08:27;;;;;;;4.30;2.47;;;;;;;;;;5135483;27;20236;-56
2023/07/30 04:10:53;;;;;;;4.03;2.50;;;;;;;;;;5135130;27;20264;-56
2023/07/30 04:13:20;;;;;;;4.53;2.53;;;;;;;;;;5135206;27;20204;-56
2023/07/30 04:15:47;;;;;;;8.30;2.93;;;;;;;;;;5134925;27;20193;-56
2023/07/30 04:18:13;;;;;;;4.10;2.50;;;;;;;;;;5135184;27;20200;-56
2023/07/30 04:20:39;;;;;;;5.03;2.87;;;;;;;;;;5134938;27;20574;-56
2023/07/30 04:23:05;;;;;;;4.43;2.80;;;;;;;;;;5135126;27;20216;-56
2023/07/30 04:25:31;;;;;;;5.00;2.53;;;;;;;;;;5133693;27;20217;-56
2023/07/30 04:27:58;;;;;;;7.03;2.40;;;;;;;;;;5134555;27;20221;-56
2023/07/30 04:30:25;;;;;;;4.90;2.40;;;;;;;;;;5134920;27;20200;-56
2023/07/30 04:32:51;;;;;;;6.43;2.67;;;;;;;;;;5134685;27;20716;-55
2023/07/30 04:35:17;;;;;;;7.23;2.90;;;;;;;;;;5134853;27;20197;-56
2023/07/30 04:37:43;;;;;;;5.33;2.90;;;;;;;;;;5134893;27;20196;-56
2023/07/30 04:40:10;;;;;;;3.67;2.57;;;;;;;;;;5134944;27;20355;-56
2023/07/30 04:42:36;;;;;;;5.90;2.90;;;;;;;;;;5134465;27;20202;-56
2023/07/30 04:45:02;;;;;;;7.77;3.27;;;;;;;;;;5134611;27;20200;-56
2023/07/30 04:47:29;;;;;;;12.60;3.10;;;;;;;;;;5134442;27;20208;-57
2023/07/30 04:49:55;;;;;;;5.27;3.10;;;;;;;;;;5134750;27;20201;-56
2023/07/30 04:52:21;;;;;;;6.50;3.03;;;;;;;;;;5134402;27;20242;-57
2023/07/30 04:54:47;;;;;;;7.80;2.73;;;;;;;;;;5134424;27;20217;-57
2023/07/30 04:57:13;;;;;;;4.83;2.93;;;;;;;;;;5134590;27;20292;-56
2023/07/30 04:59:39;;;;;;;6.93;3.33;;;;;;;;;;5134421;27;20178;-55
2023/07/30 05:02:06;;;;;;;8.07;3.00;;;;;;;;;;5134230;27;20208;-55
2023/07/30 05:04:33;;;;;;;5.47;3.00;;;;;;;;;;5134077;27;20193;-55
2023/07/30 05:06:59;;;;;;;4.97;3.30;;;;;;;;;;5134357;27;20208;-55
2023/07/30 05:09:25;;;;;;;4.70;3.33;;;;;;;;;;5134130;27;20779;-55
2023/07/30 05:11:51;;;;;;;6.73;3.10;;;;;;;;;;5133945;27;20193;-55
2023/07/30 05:14:17;;;;;;;9.17;4.00;;;;;;;;;;5133955;27;20208;-55
2023/07/30 05:16:43;;;;;;;5.47;2.63;;;;;;;;;;5132741;27;20292;-55
2023/07/30 05:19:09;;;;;;;8.70;3.57;;;;;;;;;;5134119;27;20200;-55
2023/07/30 05:21:37;;;;;;;6.80;3.23;;;;;;;;;;5133885;27;20245;-55
2023/07/30 05:24:03;;;;;;;5.27;3.63;;;;;;;;;;5133666;27;20198;-55
2023/07/30 05:26:29;;;;;;;4.60;3.03;;;;;;;;;;5133557;27;20193;-55
2023/07/30 05:28:55;;;;;;;6.27;3.20;;;;;;;;;;5133876;27;20226;-55
2023/07/30 05:31:21;;;;;;;5.73;3.50;;;;;;;;;;5132840;27;20288;-55
2023/07/30 05:33:47;;;;;;;8.10;3.73;;;;;;;;;;5132538;27;20716;-55
2023/07/30 05:36:13;;;;;;;9.13;3.43;;;;;;;;;;5133480;27;20198;-55
2023/07/30 05:38:40;;;;;;;7.53;3.53;;;;;;;;;;5133463;27;20196;-55
2023/07/30 05:41:06;;;;;;;4.50;3.50;;;;;;;;;;5133339;27;20201;-55
2023/07/30 05:43:32;;;;;;;7.57;3.57;;;;;;;;;;5133159;27;20288;-55
2023/07/30 05:45:58;;;;;;;7.63;3.77;;;;;;;;;;5133512;27;20270;-55
2023/07/30 05:48:24;;;;;;;5.67;3.20;;;;;;;;;;5133244;27;20700;-55
2023/07/30 05:50:50;;;;;;;6.30;3.63;;;;;;;;;;5133253;27;20193;-55
2023/07/30 05:53:16;;;;;;;7.40;3.37;;;;;;;;;;5133376;27;20236;-55
2023/07/30 05:55:43;;;;;;;8.27;3.93;;;;;;;;;;5133300;27;20225;-55
2023/07/30 05:58:09;;;;;;;6.23;3.50;;;;;;;;;;5133127;27;20277;-55
2023/07/30 06:00:35;;;;;;;8.97;4.10;;;;;;;;;;5132662;27;20578;-55
2023/07/30 06:03:02;;;;;;;9.33;3.80;;;;;;;;;;5132732;27;20197;-55
2023/07/30 06:05:28;;;;;;;6.13;4.07;;;;;;;;;;5133154;27;20310;-55
2023/07/30 06:07:54;;;;;;;6.30;4.03;;;;;;;;;;5132989;27;20308;-55
2023/07/30 06:10:20;;;;;;;5.60;3.73;;;;;;;;;;5133010;27;20636;-55
2023/07/30 06:12:47;;;;;;;6.60;3.80;;;;;;;;;;5132910;27;20292;-55
2023/07/30 06:15:13;;;;;;;5.13;4.00;;;;;;;;;;5133071;27;20198;-55
2023/07/30 06:17:39;;;;;;;7.33;4.07;;;;;;;;;;5132718;27;20309;-55
2023/07/30 06:20:05;;;;;;;8.73;4.50;;;;;;;;;;5132957;27;20309;-55
2023/07/30 06:22:31;;;;;;;8.20;3.90;;;;;;;;;;5132741;27;20194;-55
2023/07/30 06:24:58;;;;;;;6.70;3.83;;;;;;;;;;5132602;27;20247;-55
2023/07/30 06:27:24;;;;;;;8.17;3.90;;;;;;;;;;5132443;27;20204;-55
2023/07/30 06:29:51;;;;;;;7.77;3.17;;;;;;;;;;5132558;27;20228;-55
2023/07/30 06:32:17;;;;;;;9.00;4.13;;;;;;;;;;5132549;27;20205;-54
2023/07/30 06:34:43;;;;;;;9.07;3.90;;;;;;;;;;5132756;27;20206;-55
2023/07/30 06:37:09;;;;;;;5.60;3.10;;;;;;;;;;5132719;27;20532;-55
2023/07/30 06:39:35;;;;;;;7.33;3.80;;;;;;;;;;5132520;27;20556;-55
2023/07/30 06:42:01;;;;;;;7.43;3.43;;;;;;;;;;5132603;27;20205;-55
2023/07/30 06:44:28;;;;;;;9.90;3.97;;;;;;;;;;5132539;27;20235;-55
2023/07/30 06:46:55;;;;;;;8.13;3.67;;;;;;;;;;5132512;27;20199;-55
2023/07/30 06:49:21;;;;;;;7.83;3.80;;;;;;;;;;5131996;27;20217;-55
2023/07/30 06:51:47;;;;;;;8.13;3.63;;;;;;;;;;5132152;28;20197;-55
2023/07/30 06:54:13;;;;;;;11.53;3.90;;;;;;;;;;5132448;28;20332;-55
2023/07/30 06:56:39;;;;;;;7.90;3.40;;;;;;;;;;5132244;28;20204;-56
2023/07/30 06:59:05;;;;;;;8.53;3.30;;;;;;;;;;5132363;28;20199;-57
2023/07/30 07:01:31;;;;;;;6.60;3.43;;;;;;;;;;5132223;28;20635;-57
2023/07/30 07:03:59;;;;;;;8.07;4.27;;;;;;;;;;5130592;28;20229;-57
2023/07/30 07:06:25;;;;;;;9.63;3.90;;;;;;;;;;5131976;28;20199;-58
2023/07/30 07:08:51;;;;;;;4.53;3.00;;;;;;;;;;5131993;28;20249;-56
2023/07/30 07:11:17;;;;;;;8.10;3.43;;;;;;;;;;5132290;28;20199;-56
2023/07/30 07:13:43;;;;;;;9.67;3.67;;;;;;;;;;5132187;28;20758;-57
2023/07/30 07:16:09;;;;;;;8.13;3.53;;;;;;;;;;5132371;28;20289;-55
2023/07/30 07:18:35;;;;;;;7.63;3.60;;;;;;;;;;5132106;28;20215;-58
2023/07/30 07:21:03;;;;;;;10.40;3.57;;;;;;;;;;5132140;28;20650;-56
2023/07/30 07:23:29;;;;;;;7.87;3.80;;;;;;;;;;5132238;28;20306;-59
2023/07/30 07:25:55;;;;;;;11.40;3.77;;;;;;;;;;5132042;28;20216;-60
2023/07/30 07:28:21;;;;;;;11.93;3.00;;;;;;;;;;5132042;28;20260;-59
2023/07/30 07:30:47;;;;;;;8.80;3.13;;;;;;;;;;5131981;28;20200;-58
2023/07/30 07:33:13;;;;;;;9.03;3.37;;;;;;;;;;5131769;27;20630;-58
2023/07/30 07:35:40;;;;;;;8.43;3.43;;;;;;;;;;5125653;28;20209;-55
2023/07/30 07:38:07;;;;;;;8.83;3.60;;;;;;;;;;5128099;27;20201;-56
2023/07/30 07:40:39;;;;;;;12.50;3.23;;;;;;;;;;5132015;27;20232;-57
2023/07/30 07:43:05;;;;;;;9.70;3.63;;;;;;;;;;5129979;27;20223;-57
2023/07/30 07:45:31;;;;;;;5.80;2.73;;;;;;;;;;5129933;27;20694;-58
2023/07/30 07:47:57;;;;;;;10.93;3.90;;;;;;;;;;5132050;27;20219;-57
2023/07/30 07:50:23;;;;;;;11.80;3.60;;;;;;;;;;5131679;27;20204;-56
2023/07/30 07:52:49;;;;;;;6.00;3.20;;;;;;;;;;5131752;27;20972;-57
2023/07/30 07:55:17;;;;;;;7.57;3.17;;;;;;;;;;5131812;27;20245;-57
2023/07/30 07:57:43;;;;;;;6.00;3.20;;;;;;;;;;5131891;27;20570;-58
2023/07/30 08:00:10;;;;;;;9.33;3.60;;;;;;;;;;5132411;27;20200;-57
2023/07/30 08:02:36;;;;;;;8.97;3.37;;;;;;;;;;5135239;27;20272;-57
2023/07/30 08:05:03;;;;;;;7.53;3.53;;;;;;;;;;5135269;27;20226;-57
2023/07/30 08:07:29;;;;;;;9.50;3.53;;;;;;;;;;5135304;27;20751;-57
2023/07/30 08:09:55;;;;;;;8.07;3.40;;;;;;;;;;5135119;27;20593;-57
2023/07/30 08:12:22;;;;;;;9.13;3.30;;;;;;;;;;5135125;27;20204;-58
2023/07/30 08:14:48;;;;;;;9.10;3.73;;;;;;;;;;5134955;27;20640;-57
2023/07/30 08:17:14;;;;;;;10.20;3.50;;;;;;;;;;5135214;27;20201;-57
2023/07/30 08:19:40;;;;;;;7.50;3.53;;;;;;;;;;5135007;27;20645;-56
2023/07/30 08:22:06;;;;;;;9.97;3.67;;;;;;;;;;5134812;27;20196;-57
2023/07/30 08:24:32;;;;;;;11.17;3.30;;;;;;;;;;5134094;27;20217;-57
2023/07/30 08:26:59;;;;;;;9.07;3.30;;;;;;;;;;5130679;27;20197;-57
2023/07/30 08:29:26;;;;;;;11.90;3.70;;;;;;;;;;5134056;27;20232;-58
2023/07/30 08:31:52;;;;;;;8.47;3.43;;;;;;;;;;5134120;27;20208;-58
2023/07/30 08:34:18;;;;;;;9.03;3.77;;;;;;;;;;5133650;27;20233;-57
2023/07/30 08:36:44;;;;;;;8.80;3.67;;;;;;;;;;5133661;27;20645;-58
2023/07/30 08:39:10;;;;;;;11.03;4.10;;;;;;;;;;5133872;27;20569;-57
2023/07/30 08:41:36;;;;;;;10.03;3.60;;;;;;;;;;5133610;27;20247;-57
2023/07/30 08:44:03;;;;;;;6.70;3.83;;;;;;;;;;5133695;27;20216;-57
2023/07/30 08:46:30;;;;;;;6.67;3.40;;;;;;;;;;5133641;27;20198;-57
2023/07/30 08:48:57;;;;;;;11.70;4.50;;;;;;;;;;5133546;27;20804;-58
2023/07/30 08:51:24;;;;;;;12.63;4.10;;;;;;;;;;5133772;27;20208;-57
2023/07/30 08:53:51;;;;;;;9.67;4.33;;;;;;;;;;5133429;27;20196;-58
2023/07/30 08:56:17;;;;;;;14.50;4.10;;;;;;;;;;5133390;27;20671;-58
2023/07/30 08:58:44;;;;;;;9.30;4.40;;;;;;;;;;5133283;27;20200;-59
2023/07/30 09:01:11;;;;;;;9.47;4.20;;;;;;;;;;5133473;27;20649;-57
2023/07/30 09:03:40;;;;;;;10.33;4.43;;;;;;;;;;5133231;27;20287;-57
2023/07/30 09:06:06;;;;;;;13.90;4.90;;;;;;;;;;5133103;27;20201;-58
2023/07/30 09:08:32;;;;;;;12.70;5.77;;;;;;;;;;5133007;27;20219;-58
2023/07/30 09:11:06;;;;;;;12.53;5.17;;;;;;;;;;5132726;27;20205;-57
2023/07/30 09:13:36;;;;;;;9.70;4.50;;;;;;;;;;5132822;27;20284;-57
2023/07/30 09:16:08;;;;;;;13.00;4.97;;;;;;;;;;5133092;27;20282;-57
2023/07/30 09:18:39;;;;;;;8.43;4.20;;;;;;;;;;5132736;27;20226;-57
2023/07/30 09:21:05;;;;;;;8.73;4.53;;;;;;;;;;5133011;27;20204;-56
2023/07/30 09:23:31;;;;;;;9.10;4.53;;;;;;;;;;5132739;27;20347;-58
2023/07/30 09:25:58;;;;;;;8.17;4.30;;;;;;;;;;5132946;27;20225;-57
2023/07/30 09:28:31;;;;;;;8.33;4.53;;;;;;;;;;5132713;27;20263;-57
2023/07/30 09:31:00;;;;;;;12.80;4.67;;;;;;;;;;5132817;27;20201;-56
2023/07/30 09:33:27;;;;;;;12.70;5.50;;;;;;;;;;5132662;27;20245;-57
2023/07/30 09:35:55;;;;;;;13.63;5.47;;;;;;;;;;5132614;27;20231;-57
2023/07/30 09:38:21;;;;;;;12.23;5.57;;;;;;;;;;5132573;27;20196;-57
2023/07/30 09:40:49;;;;;;;11.20;5.20;;;;;;;;;;5132442;27;20349;-57
2023/07/30 09:43:15;;;;;;;13.97;5.90;;;;;;;;;;5132156;27;20220;-58
2023/07/30 09:45:44;;;;;;;12.47;5.90;;;;;;;;;;5132207;27;20192;-57
2023/07/30 09:48:10;;;;;;;12.17;5.43;;;;;;;;;;5132298;27;20229;-56
2023/07/30 09:50:37;;;;;;;10.53;4.93;;;;;;;;;;5132314;27;20195;-58
2023/07/30 09:53:05;;;;;;;13.27;5.43;;;;;;;;;;5132389;27;20590;-57
2023/07/30 09:55:31;;;;;;;9.90;5.50;;;;;;;;;;5132159;27;20212;-57
2023/07/30 09:57:57;;;;;;;10.77;4.90;;;;;;;;;;5132363;27;20202;-57
2023/07/30 10:00:24;;;;;;;11.97;4.97;;;;;;;;;;5132434;27;20204;-57
2023/07/30 10:02:50;;;;;;;9.13;4.60;;;;;;;;;;5131946;27;20203;-57
2023/07/30 10:05:18;;;;;;;7.73;5.03;;;;;;;;;;5132181;27;20200;-57
2023/07/30 10:07:47;;;;;;;10.47;4.90;;;;;;;;;;5129781;27;20291;-57
2023/07/30 10:10:14;;;;;;;11.13;5.23;;;;;;;;;;5132044;27;20205;-57
2023/07/30 10:12:42;;;;;;;16.23;5.43;;;;;;;;;;5132105;27;20657;-57
2023/07/30 10:15:08;;;;;;;11.67;5.70;;;;;;;;;;5130124;27;20196;-58
2023/07/30 10:17:34;;;;;;;12.20;5.00;;;;;;;;;;5131933;27;20669;-58
2023/07/30 10:20:18;;;;;;;12.27;5.00;;;;;;;;;;5132088;27;20673;-57
2023/07/30 10:22:45;;;;;;;10.77;5.50;;;;;;;;;;5131150;27;20634;-57
2023/07/30 10:25:13;;;;;;;8.43;6.40;;;;;;;;;;5132103;27;20306;-58
2023/07/30 10:27:46;;;;;;;9.57;5.30;;;;;;;;;;5131789;27;20199;-57
2023/07/30 10:30:13;;;;;;;11.17;5.23;;;;;;;;;;5131969;27;20228;-57
2023/07/30 10:32:39;;;;;;;9.03;4.67;;;;;;;;;;5131563;27;20274;-57
2023/07/30 10:35:06;;;;;;;8.40;4.67;;;;;;;;;;5131811;27;20195;-58
2023/07/30 10:37:32;;;;;;;9.73;5.10;;;;;;;;;;5131648;27;20197;-58
2023/07/30 10:39:58;;;;;;;8.60;5.10;;;;;;;;;;5129788;27;20310;-57
2023/07/30 10:42:24;;;;;;;11.10;5.23;;;;;;;;;;5131635;27;20234;-55
2023/07/30 10:44:51;;;;;;;9.97;5.27;;;;;;;;;;5131467;27;20730;-57
2023/07/30 10:47:17;;;;;;;11.07;5.27;;;;;;;;;;5131435;27;20232;-58
2023/07/30 10:49:43;;;;;;;11.37;4.97;;;;;;;;;;5131238;27;20256;-58
2023/07/30 10:52:10;;;;;;;8.47;5.40;;;;;;;;;;5131454;27;20193;-57
2023/07/30 10:54:36;;;;;;;10.77;5.37;;;;;;;;;;5131586;27;20204;-57
2023/07/30 10:57:03;;;;;;;10.97;5.87;;;;;;;;;;5131245;27;20207;-57
2023/07/30 10:59:33;;;;;;;8.93;5.33;;;;;;;;;;5131362;27;20279;-57
2023/07/30 11:02:01;;;;;;;11.10;5.27;;;;;;;;;;5131340;27;20225;-58
2023/07/30 11:04:27;;;;;;;13.10;4.83;;;;;;;;;;5131370;27;20197;-56
2023/07/30 11:06:53;;;;;;;7.70;4.27;;;;;;;;;;5131156;27;20189;-58
2023/07/30 11:09:20;;;;;;;10.90;5.37;;;;;;;;;;5122109;27;20702;-58
2023/07/30 11:11:46;;;;;;;8.10;4.60;;;;;;;;;;5128141;28;20205;-58
2023/07/30 11:14:15;;;;;;;10.20;4.83;;;;;;;;;;5132022;27;20367;-58
2023/07/30 11:16:47;;;;;;;11.00;5.47;;;;;;;;;;5131506;27;20613;-57
2023/07/30 11:19:14;;;;;;;13.73;4.83;;;;;;;;;;5132079;27;20189;-57
2023/07/30 11:21:44;;;;;;;8.93;4.60;;;;;;;;;;5131590;27;20230;-58
2023/07/30 11:24:10;;;;;;;7.23;4.80;;;;;;;;;;5130648;27;20197;-58
2023/07/30 11:26:36;;;;;;;7.10;4.00;;;;;;;;;;5110965;28;20199;-58
2023/07/30 11:29:14;;;;;;;7.27;4.23;;;;;;;;;;5110790;28;20316;-58
2023/07/30 11:31:40;;;;;;;9.17;4.23;;;;;;;;;;5109259;28;20206;-58
2023/07/30 11:34:06;;;;;;;9.70;4.53;;;;;;;;;;5111764;28;20228;-58
2023/07/30 11:36:33;;;;;;;8.33;4.60;;;;;;;;;;5114204;28;20315;-58
2023/07/30 11:39:00;;;;;;;9.47;4.33;;;;;;;;;;5114746;28;20205;-59
2023/07/30 11:41:26;;;;;;;11.27;4.63;;;;;;;;;;5114845;28;20194;-59
2023/07/30 11:43:52;;;;;;;8.60;4.60;;;;;;;;;;5114809;28;20222;-57
2023/07/30 11:46:22;;;;;;;8.03;4.23;;;;;;;;;;5114909;28;20570;-58
2023/07/30 11:48:48;;;;;;;7.10;3.90;;;;;;;;;;5114611;28;20226;-59
2023/07/30 11:51:19;;;;;;;9.90;4.27;;;;;;;;;;5112805;28;20200;-59
2023/07/30 11:53:47;;;;;;;10.23;4.20;;;;;;;;;;5113693;28;20228;-58
2023/07/30 11:56:17;;;;;;;8.07;4.27;;;;;;;;;;5110552;28;20202;-58
2023/07/30 11:58:43;;;;;;;8.90;3.93;;;;;;;;;;5114049;28;20688;-56
2023/07/30 12:01:09;;;;;;;7.07;4.20;;;;;;;;;;5114334;28;20256;-55
2023/07/30 12:03:35;;;;;;;7.37;3.40;;;;;;;;;;5113987;28;20198;-55
2023/07/30 12:06:05;;;;;;;7.30;3.73;;;;;;;;;;5113873;28;20563;-57
2023/07/30 12:08:31;;;;;;;6.07;3.10;;;;;;;;;;5115716;27;20222;-58
2023/07/30 12:11:02;;;;;;;7.63;3.20;;;;;;;;;;5132328;27;20201;-58
2023/07/30 12:13:29;;;;;;;7.57;3.20;;;;;;;;;;5132788;27;20198;-55
2023/07/30 12:15:55;;;;;;;6.60;3.10;;;;;;;;;;5134320;27;20194;-56
2023/07/30 12:18:21;;;;;;;4.53;2.83;;;;;;;;;;5134353;27;20194;-56
2023/07/30 12:20:50;;;;;;;4.60;2.50;;;;;;;;;;5134240;27;20663;-57
2023/07/30 12:23:16;;;;;;;5.47;2.83;;;;;;;;;;5134645;27;20236;-59
2023/07/30 12:25:42;;;;;;;3.93;2.80;;;;;;;;;;5134537;27;20245;-57
2023/07/30 12:28:09;;;;;;;6.50;2.83;;;;;;;;;;5134565;27;20201;-57
2023/07/30 12:30:36;;;;;;;7.57;2.50;;;;;;;;;;5134389;27;20197;-56
2023/07/30 12:33:03;;;;;;;5.87;2.87;;;;;;;;;;5134163;27;20241;-57
2023/07/30 12:35:29;;;;;;;6.03;2.80;;;;;;;;;;5134484;27;20190;-57
2023/07/30 12:37:55;;;;;;;4.47;2.87;;;;;;;;;;5134320;27;20182;-57
2023/07/30 12:40:21;;;;;;;6.80;2.70;;;;;;;;;;5134241;27;20288;-57
2023/07/30 12:42:47;;;;;;;9.67;2.90;;;;;;;;;;5133905;27;20202;-57
2023/07/30 12:45:14;;;;;;;4.07;2.67;;;;;;;;;;5134139;27;20288;-57
2023/07/30 12:47:40;;;;;;;8.27;2.97;;;;;;;;;;5133338;27;20687;-57
2023/07/30 12:50:07;;;;;;;8.70;2.70;;;;;;;;;;5133878;27;20320;-57
2023/07/30 12:52:33;;;;;;;6.33;2.70;;;;;;;;;;5133981;27;20189;-57
2023/07/30 12:54:59;;;;;;;4.53;2.60;;;;;;;;;;5133765;27;20668;-57
2023/07/30 12:57:25;;;;;;;5.13;2.40;;;;;;;;;;5134104;27;20205;-57
2023/07/30 12:59:51;;;;;;;6.80;2.73;;;;;;;;;;5133806;27;20238;-57
2023/07/30 13:02:18;;;;;;;5.77;2.70;;;;;;;;;;5133798;27;20262;-57
2023/07/30 13:04:44;;;;;;;5.77;2.60;;;;;;;;;;5133801;27;20250;-57
2023/07/30 13:07:10;;;;;;;5.10;2.50;;;;;;;;;;5131921;27;20752;-57
2023/07/30 13:09:36;;;;;;;8.47;2.90;;;;;;;;;;5132808;27;20222;-57
2023/07/30 13:12:02;;;;;;;6.67;2.67;;;;;;;;;;5132660;27;20200;-57
2023/07/30 13:14:28;;;;;;;4.47;2.50;;;;;;;;;;5133100;27;20254;-57
2023/07/30 13:16:54;;;;;;;8.03;2.60;;;;;;;;;;5133090;27;20194;-56
2023/07/30 13:19:21;;;;;;;5.33;2.40;;;;;;;;;;5132904;27;20293;-57
2023/07/30 13:21:47;;;;;;;5.97;2.90;;;;;;;;;;5132751;27;20234;-57
2023/07/30 13:24:13;;;;;;;5.17;2.60;;;;;;;;;;5133478;27;20250;-57
2023/07/30 13:26:39;;;;;;;5.03;2.40;;;;;;;;;;5133415;27;20250;-57
2023/07/30 13:29:05;;;;;;;4.50;2.87;;;;;;;;;;5133037;27;20264;-56
2023/07/30 13:31:31;;;;;;;7.80;3.10;;;;;;;;;;5133201;27;20602;-57
2023/07/30 13:33:57;;;;;;;4.50;2.80;;;;;;;;;;5133092;27;20231;-57
2023/07/30 13:36:25;;;;;;;5.37;2.33;;;;;;;;;;5133213;27;20198;-56
2023/07/30 13:38:51;;;;;;;3.83;2.40;;;;;;;;;;5133048;27;20249;-55
2023/07/30 13:41:17;;;;;;;5.10;2.87;;;;;;;;;;5132977;27;20680;-55
2023/07/30 13:43:43;;;;;;;6.87;3.37;;;;;;;;;;5133073;27;20209;-55
2023/07/30 13:46:09;;;;;;;4.13;2.53;;;;;;;;;;5133068;27;20656;-55
2023/07/30 13:48:35;;;;;;;4.07;2.57;;;;;;;;;;5132810;27;20217;-55
2023/07/30 13:51:01;;;;;;;5.07;2.50;;;;;;;;;;5132781;27;20197;-54
2023/07/30 13:53:29;;;;;;;4.90;2.63;;;;;;;;;;5133183;27;20209;-54
2023/07/30 13:55:55;;;;;;;3.63;2.70;;;;;;;;;;5132782;27;20684;-55
2023/07/30 13:58:21;;;;;;;4.70;2.67;;;;;;;;;;5132656;27;20193;-55
2023/07/30 14:00:47;;;;;;;5.73;2.87;;;;;;;;;;5132639;27;20228;-55
2023/07/30 14:03:13;;;;;;;6.73;2.83;;;;;;;;;;5132838;27;20193;-56
2023/07/30 14:05:39;;;;;;;5.40;2.73;;;;;;;;;;5132516;27;20280;-56
2023/07/30 14:08:06;;;;;;;6.73;2.70;;;;;;;;;;5132617;27;20197;-56
2023/07/30 14:10:33;;;;;;;5.87;2.70;;;;;;;;;;5132367;27;20225;-56
2023/07/30 14:12:59;;;;;;;6.37;2.33;;;;;;;;;;5132359;27;20203;-55
2023/07/30 14:15:25;;;;;;;6.40;2.60;;;;;;;;;;5132543;27;20264;-56
2023/07/30 14:17:52;;;;;;;4.60;2.23;;;;;;;;;;5132432;27;20221;-56
2023/07/30 14:20:18;;;;;;;4.67;2.40;;;;;;;;;;5132260;27;20189;-57
2023/07/30 14:22:44;;;;;;;4.40;2.20;;;;;;;;;;5132207;27;20213;-56
2023/07/30 14:25:10;;;;;;;4.63;2.17;;;;;;;;;;5132262;27;20244;-55
2023/07/30 14:27:37;;;;;;;6.43;2.33;;;;;;;;;;5132127;27;20598;-56
2023/07/30 14:30:04;;;;;;;3.43;1.87;;;;;;;;;;5131940;27;20772;-56
2023/07/30 14:32:30;;;;;;;4.93;2.70;;;;;;;;;;5132037;27;20198;-56
2023/07/30 14:34:56;;;;;;;6.43;2.33;;;;;;;;;;5132226;27;20276;-56
2023/07/30 14:37:22;;;;;;;4.53;2.20;;;;;;;;;;5132292;27;20256;-54